Time;durP1;ratioP1;P1;durP2;ratioP2;P2;SDS_P1;SDS_P2;PMS_P1;PMS_P2;Temp;Humidity;BMP_temperature;BMP_pressure;BME280_temperature;BME280_humidity;BME280_pressure;Samples;Min_cycle;Max_cycle;Signal;HPM_P1;HPM_P2
2023/07/15 00:03:20;;;;;;;4.32;2.50;;;22.20;1.00;;;;;;20792255;28;20135;-44
2023/07/15 00:13:41;;;;;;;3.90;2.30;;;22.40;1.00;;;;;;20791809;28;20092;-44
2023/07/15 00:24:02;;;;;;;4.78;2.47;;;22.60;1.00;;;;;;20789533;28;20508;-44
2023/07/15 00:34:24;;;;;;;13.00;3.10;;;22.40;1.00;;;;;;20795281;28;20068;-44
2023/07/15 00:44:45;;;;;;;5.05;2.17;;;22.60;1.00;;;;;;20801239;28;20056;-45
2023/07/15 00:55:08;;;;;;;4.82;2.33;;;22.70;1.00;;;;;;20806771;28;20041;-44
2023/07/15 01:05:29;;;;;;;4.90;2.17;;;22.70;1.00;;;;;;20803076;28;20071;-45
2023/07/15 01:15:50;;;;;;;5.05;2.45;;;22.60;1.00;;;;;;20793915;28;20136;-45
2023/07/15 01:26:12;;;;;;;5.18;2.00;;;22.30;1.00;;;;;;20799304;28;20041;-45
2023/07/15 01:36:34;;;;;;;4.82;2.30;;;22.00;1.00;;;;;;20827334;28;20237;-43
2023/07/15 01:46:55;;;;;;;4.38;2.10;;;21.70;1.00;;;;;;20807043;28;20041;-43
2023/07/15 01:57:16;;;;;;;3.95;2.25;;;21.70;1.00;;;;;;20811395;28;20150;-43
2023/07/15 02:07:38;;;;;;;4.03;2.45;;;21.30;1.00;;;;;;20813100;28;20520;-44
2023/07/15 02:17:59;;;;;;;3.78;2.60;;;21.10;1.00;;;;;;20806072;28;20444;-43
2023/07/15 02:28:22;;;;;;;5.22;2.38;;;20.80;1.00;;;;;;20817837;28;20061;-44
2023/07/15 02:38:44;;;;;;;6.82;2.78;;;20.50;1.00;;;;;;20823231;28;20418;-43
2023/07/15 02:49:06;;;;;;;5.20;2.40;;;20.10;1.00;;;;;;20810360;28;21560;-43
2023/07/15 02:59:28;;;;;;;5.72;2.58;;;20.00;1.00;;;;;;20822883;28;20249;-44
2023/07/15 03:09:49;;;;;;;4.18;2.30;;;19.90;1.00;;;;;;20821360;28;20077;-43
2023/07/15 03:20:19;;;;;;;4.13;2.40;;;19.80;1.00;;;;;;20816326;28;20278;-43
2023/07/15 03:30:41;;;;;;;4.22;2.70;;;19.80;1.00;;;;;;20802659;28;20032;-43
2023/07/15 03:41:02;;;;;;;5.45;2.75;;;19.80;1.00;;;;;;20814848;28;20393;-43
2023/07/15 03:51:24;;;;;;;6.20;2.65;;;19.80;1.00;;;;;;20804554;28;20455;-43
2023/07/15 04:01:45;;;;;;;5.18;2.88;;;19.70;1.00;;;;;;20811641;28;20127;-43
2023/07/15 04:12:08;;;;;;;5.90;2.65;;;19.70;1.00;;;;;;20796419;28;20124;-44
2023/07/15 04:22:29;;;;;;;4.35;2.72;;;19.70;1.00;;;;;;20790291;28;20575;-43
2023/07/15 04:32:52;;;;;;;4.65;2.60;;;19.80;1.00;;;;;;20793623;28;20054;-43
2023/07/15 04:43:13;;;;;;;4.10;2.70;;;20.10;1.00;;;;;;20789874;28;20641;-44
2023/07/15 04:53:35;;;;;;;4.78;2.17;;;20.20;1.00;;;;;;20793998;28;20132;-44
2023/07/15 05:03:57;;;;;;;4.38;2.00;;;20.40;1.00;;;;;;20805878;28;20477;-43
2023/07/15 05:14:18;;;;;;;5.53;2.20;;;20.70;1.00;;;;;;20804821;28;20054;-43
2023/07/15 05:24:39;;;;;;;5.53;2.17;;;20.70;1.00;;;;;;20809959;28;20069;-43
2023/07/15 05:35:01;;;;;;;4.43;1.70;;;20.90;1.00;;;;;;20807439;28;20064;-43
2023/07/15 05:45:23;;;;;;;2.72;1.10;;;20.90;1.00;;;;;;20810284;28;20049;-43
2023/07/15 05:55:44;;;;;;;2.97;1.10;;;21.10;1.00;;;;;;20811073;28;20444;-43
2023/07/15 06:06:05;;;;;;;2.38;1.05;;;21.10;1.00;;;;;;20788679;28;20068;-43
2023/07/15 06:16:27;;;;;;;2.67;1.05;;;21.20;1.00;;;;;;20808498;28;20336;-43
2023/07/15 06:26:48;;;;;;;3.13;0.90;;;21.60;1.00;;;;;;20811165;28;20140;-43
2023/07/15 06:37:09;;;;;;;1.67;0.82;;;21.80;1.00;;;;;;20810766;28;20460;-44
2023/07/15 06:47:31;;;;;;;3.75;1.30;;;21.60;1.00;;;;;;20807851;28;20048;-44
2023/07/15 06:57:52;;;;;;;3.65;1.20;;;21.70;1.00;;;;;;20795878;28;20131;-43
2023/07/15 07:08:13;;;;;;;2.42;0.90;;;21.70;1.00;;;;;;20792709;28;20060;-43
2023/07/15 07:18:35;;;;;;;1.45;0.70;;;21.80;1.00;;;;;;20797167;28;20059;-43
2023/07/15 07:28:56;;;;;;;1.02;0.60;;;21.50;1.00;;;;;;20812276;28;20068;-44
2023/07/15 07:39:17;;;;;;;1.92;0.63;;;21.40;1.00;;;;;;20797239;28;20046;-44
2023/07/15 07:49:39;;;;;;;2.95;0.98;;;21.60;1.00;;;;;;20781549;28;20119;-44
2023/07/15 08:00:00;;;;;;;2.38;0.90;;;21.80;1.00;;;;;;20780863;28;20072;-43
2023/07/15 08:10:21;;;;;;;2.92;0.80;;;22.00;1.00;;;;;;20801956;28;20479;-43
2023/07/15 08:20:43;;;;;;;2.63;0.90;;;22.00;1.00;;;;;;20808108;28;20086;-43
2023/07/15 08:31:04;;;;;;;2.25;0.70;;;22.30;1.00;;;;;;20816391;28;20040;-43
2023/07/15 08:41:25;;;;;;;3.45;1.00;;;22.90;1.00;;;;;;20812365;28;20392;-43
2023/07/15 08:51:47;;;;;;;1.77;0.77;;;23.20;1.00;;;;;;20798056;28;20791;-43
2023/07/15 09:02:08;;;;;;;1.73;0.63;;;23.20;1.00;;;;;;20779657;28;20440;-43
2023/07/15 09:12:30;;;;;;;4.82;1.00;;;23.40;1.00;;;;;;20779755;28;20124;-43
2023/07/15 09:22:56;;;;;;;1.98;0.77;;;23.80;1.00;;;;;;20803324;28;20056;-43
2023/07/15 09:33:28;;;;;;;2.17;1.00;;;23.60;1.00;;;;;;20790688;28;20598;-43
2023/07/15 09:43:52;;;;;;;2.60;1.25;;;23.60;1.00;;;;;;20807689;28;20132;-43
2023/07/15 09:54:13;;;;;;;1.90;1.15;;;23.50;1.00;;;;;;20788109;28;20045;-43
2023/07/15 10:04:37;;;;;;;2.78;1.30;;;23.30;1.00;;;;;;20818798;28;20127;-43
2023/07/15 10:14:59;;;;;;;3.75;1.85;;;23.60;1.00;;;;;;20816424;28;20053;-43
2023/07/15 10:25:20;;;;;;;2.60;1.58;;;23.80;1.00;;;;;;20805011;28;20041;-43
2023/07/15 10:35:41;;;;;;;3.53;2.10;;;23.80;1.00;;;;;;20796293;28;20051;-43
2023/07/15 10:46:16;;;;;;;5.30;2.13;;;24.50;1.00;;;;;;20791702;28;20069;-43
2023/07/15 10:56:38;;;;;;;3.08;1.65;;;25.00;1.00;;;;;;20806902;28;20044;-44
2023/07/15 11:07:07;;;;;;;2.75;1.58;;;24.90;1.00;;;;;;20795692;28;20057;-44
2023/07/15 11:17:28;;;;;;;2.65;1.58;;;24.70;1.00;;;;;;20807646;28;20084;-44
2023/07/15 11:27:50;;;;;;;2.88;1.38;;;24.30;1.00;;;;;;20807900;28;20069;-44
2023/07/15 11:38:13;;;;;;;3.38;1.63;;;24.20;1.00;;;;;;20792519;28;20068;-44
2023/07/15 11:48:35;;;;;;;5.22;1.63;;;25.10;1.00;;;;;;20793017;28;20440;-42
2023/07/15 11:58:56;;;;;;;2.60;1.52;;;25.60;1.00;;;;;;20799190;28;20484;-44
2023/07/15 12:09:18;;;;;;;2.78;1.38;;;25.90;1.00;;;;;;20794757;28;20088;-42
2023/07/15 12:19:40;;;;;;;3.88;1.33;;;26.20;1.00;;;;;;20797387;28;20464;-43
2023/07/15 12:30:01;;;;;;;3.97;1.90;;;26.30;1.00;;;;;;20794255;28;20224;-43
2023/07/15 12:40:22;;;;;;;3.38;1.67;;;26.10;1.00;;;;;;20794831;28;20040;-42
2023/07/15 12:50:44;;;;;;;4.45;1.85;;;25.60;1.00;;;;;;20785769;28;20608;-43
2023/07/15 13:01:06;;;;;;;3.15;1.50;;;25.30;1.00;;;;;;20789171;28;20037;-43
2023/07/15 13:11:28;;;;;;;3.47;2.05;;;25.20;1.00;;;;;;20794936;28;20052;-43
2023/07/15 13:21:49;;;;;;;2.42;1.52;;;26.00;1.00;;;;;;20811699;28;20076;-42
2023/07/15 13:32:10;;;;;;;5.20;1.80;;;25.40;1.00;;;;;;20799608;28;20060;-42
2023/07/15 13:42:32;;;;;;;3.58;2.15;;;25.00;1.00;;;;;;20797231;28;20029;-42
2023/07/15 13:52:53;;;;;;;2.55;1.50;;;25.30;1.00;;;;;;20798178;28;20712;-42
2023/07/15 14:03:14;;;;;;;3.38;1.60;;;26.00;1.00;;;;;;20801758;28;20133;-42
2023/07/15 14:13:36;;;;;;;3.97;1.92;;;26.50;1.00;;;;;;20780704;28;20520;-42
2023/07/15 14:23:58;;;;;;;3.55;1.48;;;26.80;1.00;;;;;;20784039;28;20076;-42
2023/07/15 14:34:19;;;;;;;4.43;1.63;;;26.90;1.00;;;;;;20795257;28;20707;-42
2023/07/15 14:44:41;;;;;;;4.85;1.70;;;26.70;1.00;;;;;;20686821;28;20117;-42
2023/07/15 14:54:42;;;;;;;4.13;1.40;;;26.00;1.00;;;;;;20728515;28;20144;-43
2023/07/15 15:04:43;;;;;;;4.97;2.00;;;25.70;1.00;;;;;;20713530;28;20041;-43
2023/07/15 15:14:44;;;;;;;6.22;1.98;;;22.80;1.00;;;;;;20747272;28;20076;-43
2023/07/15 15:24:45;;;;;;;11.23;2.50;;;20.40;1.00;;;;;;20731914;28;20329;-43
2023/07/15 15:34:46;;;;;;;6.90;2.40;;;19.30;1.00;;;;;;20731602;28;20713;-43
2023/07/15 15:44:47;;;;;;;7.95;2.30;;;18.90;90.50;;;;;;21507285;22;20041;-78
2023/07/15 15:54:48;;;;;;;4.78;2.13;;;18.60;99.90;;;;;;20833142;28;20037;-79
2023/07/15 16:04:49;;;;;;;6.65;2.40;;;18.40;99.90;;;;;;20851302;28;20033;-79
2023/07/15 16:14:50;;;;;;;4.55;2.20;;;18.40;99.90;;;;;;20831635;28;20036;-80
2023/07/15 16:24:51;;;;;;;5.75;2.30;;;18.60;99.90;;;;;;20872745;28;20033;-81
2023/07/15 16:34:52;;;;;;;4.93;2.03;;;18.70;99.90;;;;;;20884573;28;20041;-80
2023/07/15 16:44:53;;;;;;;3.95;1.58;;;19.00;99.90;;;;;;20864520;28;20045;-79
2023/07/15 16:54:54;;;;;;;5.40;2.00;;;19.20;99.90;;;;;;20856601;28;20546;-82
2023/07/15 17:04:56;;;;;;;3.60;1.65;;;19.50;28.40;;;;;;20859211;28;20079;-82
2023/07/15 17:14:57;;;;;;;4.80;2.33;;;19.50;23.80;;;;;;20834180;28;20582;-80
2023/07/15 17:24:58;;;;;;;5.60;2.10;;;19.40;29.40;;;;;;20868919;28;20045;-79
2023/07/15 17:34:59;;;;;;;6.28;1.65;;;19.50;13.00;;;;;;20840677;28;20044;-80
2023/07/15 17:45:00;;;;;;;4.38;1.80;;;19.50;1.00;;;;;;20850485;28;21187;-81
2023/07/15 17:55:02;;;;;;;4.38;1.77;;;19.50;1.00;;;;;;20852682;28;20079;-82
2023/07/15 18:05:03;;;;;;;5.07;1.50;;;19.60;1.00;;;;;;20869102;28;20037;-82
2023/07/15 18:15:05;;;;;;;4.13;2.08;;;19.80;1.00;;;;;;20861003;28;20053;-83
2023/07/15 18:25:06;;;;;;;6.25;1.70;;;19.60;1.00;;;;;;20829385;28;20041;-83
2023/07/15 18:35:07;;;;;;;2.55;1.10;;;19.40;1.00;;;;;;20842753;28;20048;-84
2023/07/15 18:45:09;;;;;;;4.47;1.30;;;19.30;1.00;;;;;;20837525;28;20511;-83
2023/07/15 18:55:10;;;;;;;3.03;1.33;;;19.40;1.00;;;;;;20832037;28;20404;-83
2023/07/15 19:05:11;;;;;;;4.13;1.30;;;19.40;1.00;;;;;;20845476;28;20036;-82
2023/07/15 19:15:13;;;;;;;4.13;1.30;;;19.50;1.00;;;;;;20828268;28;20396;-87
2023/07/15 19:25:14;;;;;;;4.15;1.50;;;19.40;1.00;;;;;;20835383;28;20148;-84
2023/07/15 19:35:15;;;;;;;3.70;1.20;;;19.40;1.00;;;;;;20820641;28;20424;-84
2023/07/15 19:45:16;;;;;;;5.40;1.63;;;19.50;1.00;;;;;;20818843;28;20044;-85
2023/07/15 19:55:17;;;;;;;9.07;1.88;;;19.50;1.00;;;;;;20822984;28;20040;-83
2023/07/15 20:05:18;;;;;;;4.22;1.52;;;19.50;1.00;;;;;;20820465;28;20495;-84
2023/07/15 20:15:19;;;;;;;7.03;1.75;;;19.20;1.00;;;;;;20833008;28;20048;-84
2023/07/15 20:25:22;;;;;;;6.40;2.20;;;18.90;1.00;;;;;;20806884;28;20154;-83
2023/07/15 20:35:23;;;;;;;8.85;1.67;;;18.60;1.00;;;;;;20818645;28;20037;-84
2023/07/15 20:45:24;;;;;;;6.93;2.35;;;18.60;1.00;;;;;;20821920;28;20075;-84
2023/07/15 20:55:25;;;;;;;5.13;1.70;;;18.50;1.00;;;;;;20822947;28;20048;-83
2023/07/15 21:05:26;;;;;;;6.32;1.73;;;18.30;1.00;;;;;;20837469;28;20469;-82
2023/07/15 21:15:27;;;;;;;9.35;2.33;;;18.10;1.00;;;;;;20842303;28;20424;-79
2023/07/15 21:25:29;;;;;;;5.28;1.60;;;17.90;1.00;;;;;;20848198;28;20045;-81
2023/07/15 21:35:33;;;;;;;5.38;2.00;;;17.70;1.00;;;;;;20834071;28;20033;-80
2023/07/15 21:45:34;;;;;;;7.97;1.90;;;17.70;1.00;;;;;;20847639;28;20087;-80
2023/07/15 21:55:36;;;;;;;5.38;2.00;;;17.70;1.00;;;;;;20848109;28;20033;-81
2023/07/15 22:05:42;;;;;;;7.75;1.73;;;17.60;1.00;;;;;;20849221;28;20037;-81
2023/07/15 22:15:44;;;;;;;9.02;1.83;;;17.60;1.00;;;;;;20868615;28;20032;-80
2023/07/15 22:25:46;;;;;;;4.85;1.90;;;17.50;1.00;;;;;;20865009;28;20033;-81
2023/07/15 22:35:47;;;;;;;7.63;1.90;;;17.70;1.00;;;;;;20862927;28;20090;-81
2023/07/15 22:45:48;;;;;;;9.02;2.47;;;17.70;1.00;;;;;;20835280;28;20063;-81
2023/07/15 22:55:50;;;;;;;9.30;1.92;;;17.70;1.00;;;;;;20849384;28;20038;-80
2023/07/15 23:05:51;;;;;;;9.65;1.92;;;17.70;1.00;;;;;;20832980;28;20098;-81
2023/07/15 23:15:52;;;;;;;5.88;1.85;;;17.60;1.00;;;;;;20851779;28;20045;-80
2023/07/15 23:25:54;;;;;;;8.40;1.70;;;17.50;1.00;;;;;;20868623;28;20435;-80
2023/07/15 23:35:55;;;;;;;5.55;2.00;;;17.50;1.00;;;;;;20860503;28;20647;-81
2023/07/15 23:45:56;;;;;;;6.40;2.00;;;17.50;1.00;;;;;;20844248;28;20044;-80
2023/07/15 23:55:57;;;;;;;5.97;1.55;;;17.40;1.00;;;;;;20844421;28;20103;-81
